Atlantic, Iowa
Current Conditions -  °F | °C
As of 9:55 AM on Sunday 25 Jan 2015 (Local Time) from KAIO Reporting Station
Overcast Overcast  
Wind Chill: 24°   Ceiling: 900
Heat Index: 36°   Visibility: 8mi
Dew Point: 34°   Wind: 23mph
Humidity: 93%   Direction: 10°N
Pressure: 29.84"   Gusts: NA
Location:  41.4°N, 95.01°W
Report Text: KAIO 251555Z AUTO 01020KT 8SM OVC009 02/01 A2984 RMK AO2
Loading
Personal Weather Stations






























Interactive Weather Map New forecast layout! Learn more

10-Day Weather Forecast

Advertisements
Track Severe Weather on mobile